sensor_id;sensor_type;location;lat;lon;timestamp;P1;durP1;ratioP1;P2;durP2;ratioP2
53801;SDS011;39709;53.334;6.534;2023-06-04T00:00:05;5.68;;;1.27;;
53801;SDS011;39709;53.334;6.534;2023-06-04T00:02:33;9.25;;;1.75;;
53801;SDS011;39709;53.334;6.534;2023-06-04T00:04:59;6.45;;;1.73;;
53801;SDS011;39709;53.334;6.534;2023-06-04T00:07:24;8.93;;;2.03;;
53801;SDS011;39709;53.334;6.534;2023-06-04T00:09:51;9.27;;;1.60;;
53801;SDS011;39709;53.334;6.534;2023-06-04T00:12:17;9.80;;;2.13;;
53801;SDS011;39709;53.334;6.534;2023-06-04T00:14:43;8.75;;;1.80;;
53801;SDS011;39709;53.334;6.534;2023-06-04T00:17:09;9.33;;;1.63;;
53801;SDS011;39709;53.334;6.534;2023-06-04T00:19:38;5.53;;;1.33;;
53801;SDS011;39709;53.334;6.534;2023-06-04T00:22:04;7.13;;;1.73;;
53801;SDS011;39709;53.334;6.534;2023-06-04T00:24:31;9.88;;;1.85;;
53801;SDS011;39709;53.334;6.534;2023-06-04T00:26:57;8.10;;;1.73;;
53801;SDS011;39709;53.334;6.534;2023-06-04T00:29:23;8.67;;;1.60;;
53801;SDS011;39709;53.334;6.534;2023-06-04T00:31:48;9.43;;;1.50;;
53801;SDS011;39709;53.334;6.534;2023-06-04T00:34:16;6.40;;;1.40;;
53801;SDS011;39709;53.334;6.534;2023-06-04T00:36:42;5.70;;;1.35;;
53801;SDS011;39709;53.334;6.534;2023-06-04T00:39:08;10.07;;;1.40;;
53801;SDS011;39709;53.334;6.534;2023-06-04T00:41:34;9.57;;;1.40;;
53801;SDS011;39709;53.334;6.534;2023-06-04T00:44:00;11.13;;;1.60;;
53801;SDS011;39709;53.334;6.534;2023-06-04T00:46:27;9.40;;;1.35;;
53801;SDS011;39709;53.334;6.534;2023-06-04T00:48:54;6.75;;;1.63;;
53801;SDS011;39709;53.334;6.534;2023-06-04T00:51:20;7.32;;;1.73;;
53801;SDS011;39709;53.334;6.534;2023-06-04T00:53:48;8.02;;;1.67;;
53801;SDS011;39709;53.334;6.534;2023-06-04T00:56:15;6.43;;;1.20;;
53801;SDS011;39709;53.334;6.534;2023-06-04T00:58:41;8.23;;;1.48;;
53801;SDS011;39709;53.334;6.534;2023-06-04T01:01:12;7.93;;;1.48;;
53801;SDS011;39709;53.334;6.534;2023-06-04T01:03:42;8.00;;;1.70;;
53801;SDS011;39709;53.334;6.534;2023-06-04T01:08:53;7.13;;;1.93;;
53801;SDS011;39709;53.334;6.534;2023-06-04T01:11:32;10.52;;;2.05;;
53801;SDS011;39709;53.334;6.534;2023-06-04T01:14:02;8.60;;;2.50;;
53801;SDS011;39709;53.334;6.534;2023-06-04T01:16:30;10.15;;;2.85;;
53801;SDS011;39709;53.334;6.534;2023-06-04T01:19:04;9.57;;;3.13;;
53801;SDS011;39709;53.334;6.534;2023-06-04T01:21:46;10.03;;;3.00;;
53801;SDS011;39709;53.334;6.534;2023-06-04T01:24:16;11.30;;;3.20;;
53801;SDS011;39709;53.334;6.534;2023-06-04T01:26:43;11.43;;;3.28;;
53801;SDS011;39709;53.334;6.534;2023-06-04T01:29:10;10.38;;;3.20;;
53801;SDS011;39709;53.334;6.534;2023-06-04T01:31:35;13.67;;;3.60;;
53801;SDS011;39709;53.334;6.534;2023-06-04T01:34:01;13.00;;;3.20;;
53801;SDS011;39709;53.334;6.534;2023-06-04T01:36:27;9.23;;;3.72;;
53801;SDS011;39709;53.334;6.534;2023-06-04T01:38:53;13.00;;;3.67;;
53801;SDS011;39709;53.334;6.534;2023-06-04T01:41:19;12.45;;;3.42;;
53801;SDS011;39709;53.334;6.534;2023-06-04T01:43:44;10.33;;;4.03;;
53801;SDS011;39709;53.334;6.534;2023-06-04T01:46:10;11.98;;;3.70;;
53801;SDS011;39709;53.334;6.534;2023-06-04T01:48:36;8.53;;;3.40;;
53801;SDS011;39709;53.334;6.534;2023-06-04T01:51:02;11.57;;;3.60;;
53801;SDS011;39709;53.334;6.534;2023-06-04T01:53:28;12.10;;;3.17;;
53801;SDS011;39709;53.334;6.534;2023-06-04T01:55:54;12.73;;;3.60;;
53801;SDS011;39709;53.334;6.534;2023-06-04T01:58:22;9.52;;;3.47;;
53801;SDS011;39709;53.334;6.534;2023-06-04T02:00:51;8.55;;;3.78;;
53801;SDS011;39709;53.334;6.534;2023-06-04T02:03:19;9.50;;;3.35;;
53801;SDS011;39709;53.334;6.534;2023-06-04T02:05:45;8.40;;;2.80;;
53801;SDS011;39709;53.334;6.534;2023-06-04T02:08:12;8.63;;;3.20;;
53801;SDS011;39709;53.334;6.534;2023-06-04T02:10:44;10.57;;;3.20;;
53801;SDS011;39709;53.334;6.534;2023-06-04T02:13:11;11.70;;;3.35;;
53801;SDS011;39709;53.334;6.534;2023-06-04T02:15:37;7.23;;;3.07;;
53801;SDS011;39709;53.334;6.534;2023-06-04T02:18:13;10.35;;;3.38;;
53801;SDS011;39709;53.334;6.534;2023-06-04T02:20:43;8.98;;;2.95;;
53801;SDS011;39709;53.334;6.534;2023-06-04T02:23:10;8.63;;;3.40;;
53801;SDS011;39709;53.334;6.534;2023-06-04T02:25:36;12.15;;;3.85;;
53801;SDS011;39709;53.334;6.534;2023-06-04T02:28:01;10.00;;;3.20;;
53801;SDS011;39709;53.334;6.534;2023-06-04T02:30:27;8.97;;;3.20;;
53801;SDS011;39709;53.334;6.534;2023-06-04T02:32:53;8.35;;;3.45;;
53801;SDS011;39709;53.334;6.534;2023-06-04T02:35:20;8.50;;;3.07;;
53801;SDS011;39709;53.334;6.534;2023-06-04T02:37:48;8.80;;;3.33;;
53801;SDS011;39709;53.334;6.534;2023-06-04T02:40:14;10.13;;;2.60;;
53801;SDS011;39709;53.334;6.534;2023-06-04T02:42:40;6.75;;;2.40;;
53801;SDS011;39709;53.334;6.534;2023-06-04T02:45:06;6.77;;;3.00;;
53801;SDS011;39709;53.334;6.534;2023-06-04T02:47:32;9.82;;;3.30;;
53801;SDS011;39709;53.334;6.534;2023-06-04T02:49:58;6.93;;;3.10;;
53801;SDS011;39709;53.334;6.534;2023-06-04T02:52:23;9.18;;;2.70;;
53801;SDS011;39709;53.334;6.534;2023-06-04T02:54:50;9.30;;;2.90;;
53801;SDS011;39709;53.334;6.534;2023-06-04T02:57:16;8.30;;;3.00;;
53801;SDS011;39709;53.334;6.534;2023-06-04T02:59:42;9.67;;;2.90;;
53801;SDS011;39709;53.334;6.534;2023-06-04T03:02:07;10.53;;;3.30;;
53801;SDS011;39709;53.334;6.534;2023-06-04T03:04:33;9.10;;;3.13;;
53801;SDS011;39709;53.334;6.534;2023-06-04T03:07:01;11.52;;;3.35;;
53801;SDS011;39709;53.334;6.534;2023-06-04T03:09:27;7.60;;;3.28;;
53801;SDS011;39709;53.334;6.534;2023-06-04T03:11:54;6.67;;;3.23;;
53801;SDS011;39709;53.334;6.534;2023-06-04T03:14:22;7.28;;;3.28;;
53801;SDS011;39709;53.334;6.534;2023-06-04T03:16:48;9.55;;;3.17;;
53801;SDS011;39709;53.334;6.534;2023-06-04T03:19:16;7.38;;;2.55;;
53801;SDS011;39709;53.334;6.534;2023-06-04T03:21:42;7.80;;;2.50;;
53801;SDS011;39709;53.334;6.534;2023-06-04T03:24:07;10.38;;;3.38;;
53801;SDS011;39709;53.334;6.534;2023-06-04T03:26:33;8.37;;;3.00;;
53801;SDS011;39709;53.334;6.534;2023-06-04T03:28:59;7.80;;;2.97;;
53801;SDS011;39709;53.334;6.534;2023-06-04T03:31:24;6.97;;;2.70;;
53801;SDS011;39709;53.334;6.534;2023-06-04T03:33:50;8.15;;;2.85;;
53801;SDS011;39709;53.334;6.534;2023-06-04T03:36:16;10.33;;;2.93;;
53801;SDS011;39709;53.334;6.534;2023-06-04T03:38:41;10.30;;;3.50;;
53801;SDS011;39709;53.334;6.534;2023-06-04T03:41:07;8.77;;;2.42;;
53801;SDS011;39709;53.334;6.534;2023-06-04T03:43:33;9.37;;;3.43;;
53801;SDS011;39709;53.334;6.534;2023-06-04T03:45:58;8.30;;;3.20;;
53801;SDS011;39709;53.334;6.534;2023-06-04T03:48:24;7.43;;;2.87;;
53801;SDS011;39709;53.334;6.534;2023-06-04T03:50:50;10.85;;;3.10;;
53801;SDS011;39709;53.334;6.534;2023-06-04T03:53:15;9.90;;;3.17;;
53801;SDS011;39709;53.334;6.534;2023-06-04T03:55:41;13.52;;;3.42;;
53801;SDS011;39709;53.334;6.534;2023-06-04T03:58:07;12.13;;;3.13;;
53801;SDS011;39709;53.334;6.534;2023-06-04T04:00:34;11.63;;;3.60;;
53801;SDS011;39709;53.334;6.534;2023-06-04T04:03:00;9.80;;;3.97;;
53801;SDS011;39709;53.334;6.534;2023-06-04T04:05:25;13.95;;;4.03;;
53801;SDS011;39709;53.334;6.534;2023-06-04T04:07:51;11.93;;;4.07;;
53801;SDS011;39709;53.334;6.534;2023-06-04T04:10:17;10.63;;;4.20;;
53801;SDS011;39709;53.334;6.534;2023-06-04T04:12:42;10.37;;;3.90;;
53801;SDS011;39709;53.334;6.534;2023-06-04T04:15:08;11.88;;;3.90;;
53801;SDS011;39709;53.334;6.534;2023-06-04T04:17:34;10.97;;;3.63;;
53801;SDS011;39709;53.334;6.534;2023-06-04T04:20:00;11.07;;;4.18;;
53801;SDS011;39709;53.334;6.534;2023-06-04T04:22:30;8.98;;;3.70;;
53801;SDS011;39709;53.334;6.534;2023-06-04T04:24:56;14.47;;;3.70;;
53801;SDS011;39709;53.334;6.534;2023-06-04T04:27:22;10.98;;;3.95;;
53801;SDS011;39709;53.334;6.534;2023-06-04T04:29:48;10.73;;;4.07;;
53801;SDS011;39709;53.334;6.534;2023-06-04T04:32:13;10.70;;;2.97;;
53801;SDS011;39709;53.334;6.534;2023-06-04T04:34:51;10.60;;;3.60;;
53801;SDS011;39709;53.334;6.534;2023-06-04T04:37:20;10.65;;;3.50;;
53801;SDS011;39709;53.334;6.534;2023-06-04T04:39:49;9.20;;;2.80;;
53801;SDS011;39709;53.334;6.534;2023-06-04T04:42:17;8.40;;;2.60;;
53801;SDS011;39709;53.334;6.534;2023-06-04T04:44:44;8.82;;;2.50;;
53801;SDS011;39709;53.334;6.534;2023-06-04T04:47:13;7.55;;;2.47;;
53801;SDS011;39709;53.334;6.534;2023-06-04T04:49:39;12.23;;;3.00;;
53801;SDS011;39709;53.334;6.534;2023-06-04T04:52:05;7.87;;;2.40;;
53801;SDS011;39709;53.334;6.534;2023-06-04T04:54:30;7.75;;;2.85;;
53801;SDS011;39709;53.334;6.534;2023-06-04T04:56:56;9.07;;;2.60;;
53801;SDS011;39709;53.334;6.534;2023-06-04T04:59:22;10.50;;;2.30;;
53801;SDS011;39709;53.334;6.534;2023-06-04T05:01:47;9.20;;;2.30;;
53801;SDS011;39709;53.334;6.534;2023-06-04T05:04:13;7.90;;;2.10;;
53801;SDS011;39709;53.334;6.534;2023-06-04T05:06:39;8.13;;;1.85;;
53801;SDS011;39709;53.334;6.534;2023-06-04T05:09:04;10.03;;;2.00;;
53801;SDS011;39709;53.334;6.534;2023-06-04T05:11:30;8.10;;;2.15;;
53801;SDS011;39709;53.334;6.534;2023-06-04T05:13:56;9.33;;;1.93;;
53801;SDS011;39709;53.334;6.534;2023-06-04T05:16:21;7.57;;;1.88;;
53801;SDS011;39709;53.334;6.534;2023-06-04T05:18:47;9.53;;;1.90;;
53801;SDS011;39709;53.334;6.534;2023-06-04T05:21:16;7.50;;;1.92;;
53801;SDS011;39709;53.334;6.534;2023-06-04T05:23:42;9.27;;;1.92;;
53801;SDS011;39709;53.334;6.534;2023-06-04T05:26:10;9.75;;;1.70;;
53801;SDS011;39709;53.334;6.534;2023-06-04T05:28:36;7.60;;;1.60;;
53801;SDS011;39709;53.334;6.534;2023-06-04T05:31:01;7.45;;;1.50;;
53801;SDS011;39709;53.334;6.534;2023-06-04T05:33:27;7.75;;;1.88;;
53801;SDS011;39709;53.334;6.534;2023-06-04T05:35:55;11.53;;;2.07;;
53801;SDS011;39709;53.334;6.534;2023-06-04T05:38:25;7.43;;;1.42;;
53801;SDS011;39709;53.334;6.534;2023-06-04T05:40:51;9.45;;;1.70;;
53801;SDS011;39709;53.334;6.534;2023-06-04T05:43:21;7.00;;;1.40;;
53801;SDS011;39709;53.334;6.534;2023-06-04T05:45:47;11.40;;;1.60;;
53801;SDS011;39709;53.334;6.534;2023-06-04T05:48:13;9.30;;;2.00;;
53801;SDS011;39709;53.334;6.534;2023-06-04T05:50:39;10.30;;;1.60;;
53801;SDS011;39709;53.334;6.534;2023-06-04T05:53:05;11.52;;;1.48;;
53801;SDS011;39709;53.334;6.534;2023-06-04T05:55:30;5.73;;;1.10;;
53801;SDS011;39709;53.334;6.534;2023-06-04T05:57:56;7.60;;;1.40;;
53801;SDS011;39709;53.334;6.534;2023-06-04T06:00:22;8.57;;;1.33;;
53801;SDS011;39709;53.334;6.534;2023-06-04T06:02:51;10.60;;;1.60;;
53801;SDS011;39709;53.334;6.534;2023-06-04T06:05:18;6.60;;;0.98;;
53801;SDS011;39709;53.334;6.534;2023-06-04T06:07:45;6.32;;;0.65;;
53801;SDS011;39709;53.334;6.534;2023-06-04T06:10:11;6.97;;;1.03;;
53801;SDS011;39709;53.334;6.534;2023-06-04T06:12:37;5.28;;;0.70;;
53801;SDS011;39709;53.334;6.534;2023-06-04T06:15:03;7.25;;;1.00;;
53801;SDS011;39709;53.334;6.534;2023-06-04T06:17:29;7.00;;;1.35;;
53801;SDS011;39709;53.334;6.534;2023-06-04T06:19:55;7.70;;;1.10;;
53801;SDS011;39709;53.334;6.534;2023-06-04T06:22:21;7.13;;;1.10;;
53801;SDS011;39709;53.334;6.534;2023-06-04T06:24:50;4.82;;;0.82;;
53801;SDS011;39709;53.334;6.534;2023-06-04T06:27:16;9.50;;;1.30;;
53801;SDS011;39709;53.334;6.534;2023-06-04T06:29:42;7.97;;;1.40;;
53801;SDS011;39709;53.334;6.534;2023-06-04T06:32:10;5.43;;;1.00;;
53801;SDS011;39709;53.334;6.534;2023-06-04T06:34:36;7.07;;;1.15;;
53801;SDS011;39709;53.334;6.534;2023-06-04T06:37:03;6.38;;;1.10;;
53801;SDS011;39709;53.334;6.534;2023-06-04T06:39:29;6.20;;;0.97;;
53801;SDS011;39709;53.334;6.534;2023-06-04T06:41:55;9.57;;;1.10;;
53801;SDS011;39709;53.334;6.534;2023-06-04T06:44:21;4.78;;;0.88;;
53801;SDS011;39709;53.334;6.534;2023-06-04T06:46:47;5.03;;;0.70;;
53801;SDS011;39709;53.334;6.534;2023-06-04T06:49:14;7.03;;;1.00;;
53801;SDS011;39709;53.334;6.534;2023-06-04T06:51:43;6.13;;;0.80;;
53801;SDS011;39709;53.334;6.534;2023-06-04T06:54:08;5.50;;;0.60;;
53801;SDS011;39709;53.334;6.534;2023-06-04T06:56:35;6.80;;;0.50;;
53801;SDS011;39709;53.334;6.534;2023-06-04T06:59:00;3.40;;;0.60;;
53801;SDS011;39709;53.334;6.534;2023-06-04T07:01:26;2.53;;;0.60;;
53801;SDS011;39709;53.334;6.534;2023-06-04T07:03:52;3.60;;;0.70;;
53801;SDS011;39709;53.334;6.534;2023-06-04T07:06:17;2.60;;;0.53;;
53801;SDS011;39709;53.334;6.534;2023-06-04T07:08:43;6.10;;;0.90;;
53801;SDS011;39709;53.334;6.534;2023-06-04T07:11:09;5.17;;;0.83;;
53801;SDS011;39709;53.334;6.534;2023-06-04T07:13:37;7.43;;;1.40;;
53801;SDS011;39709;53.334;6.534;2023-06-04T07:16:03;5.60;;;1.10;;
53801;SDS011;39709;53.334;6.534;2023-06-04T07:18:29;9.30;;;1.10;;
53801;SDS011;39709;53.334;6.534;2023-06-04T07:20:55;5.30;;;1.02;;
53801;SDS011;39709;53.334;6.534;2023-06-04T07:23:21;4.73;;;1.07;;
53801;SDS011;39709;53.334;6.534;2023-06-04T07:25:46;4.72;;;0.85;;
53801;SDS011;39709;53.334;6.534;2023-06-04T07:28:12;4.90;;;0.63;;
53801;SDS011;39709;53.334;6.534;2023-06-04T07:30:38;7.35;;;1.30;;
53801;SDS011;39709;53.334;6.534;2023-06-04T07:33:03;3.47;;;0.60;;
53801;SDS011;39709;53.334;6.534;2023-06-04T07:35:29;3.80;;;0.68;;
53801;SDS011;39709;53.334;6.534;2023-06-04T07:37:55;5.82;;;1.13;;
53801;SDS011;39709;53.334;6.534;2023-06-04T07:40:21;5.80;;;0.80;;
53801;SDS011;39709;53.334;6.534;2023-06-04T07:42:47;4.90;;;0.82;;
53801;SDS011;39709;53.334;6.534;2023-06-04T07:45:13;4.20;;;0.80;;
53801;SDS011;39709;53.334;6.534;2023-06-04T07:47:40;6.22;;;1.05;;
53801;SDS011;39709;53.334;6.534;2023-06-04T07:50:06;6.03;;;0.80;;
53801;SDS011;39709;53.334;6.534;2023-06-04T07:52:32;6.40;;;0.70;;
53801;SDS011;39709;53.334;6.534;2023-06-04T07:54:58;4.50;;;0.70;;
53801;SDS011;39709;53.334;6.534;2023-06-04T07:57:25;5.43;;;1.00;;
53801;SDS011;39709;53.334;6.534;2023-06-04T07:59:50;4.70;;;0.80;;
53801;SDS011;39709;53.334;6.534;2023-06-04T08:02:16;4.13;;;0.80;;
53801;SDS011;39709;53.334;6.534;2023-06-04T08:04:42;4.47;;;0.70;;
53801;SDS011;39709;53.334;6.534;2023-06-04T08:07:09;6.82;;;0.80;;
53801;SDS011;39709;53.334;6.534;2023-06-04T08:09:35;4.82;;;0.80;;
53801;SDS011;39709;53.334;6.534;2023-06-04T08:12:01;4.17;;;0.70;;
53801;SDS011;39709;53.334;6.534;2023-06-04T08:14:26;5.22;;;1.00;;
53801;SDS011;39709;53.334;6.534;2023-06-04T08:16:53;4.30;;;0.73;;
53801;SDS011;39709;53.334;6.534;2023-06-04T08:19:19;5.63;;;0.88;;
53801;SDS011;39709;53.334;6.534;2023-06-04T08:21:45;5.25;;;0.90;;
53801;SDS011;39709;53.334;6.534;2023-06-04T08:24:12;6.45;;;0.80;;
53801;SDS011;39709;53.334;6.534;2023-06-04T08:26:37;3.90;;;0.70;;
53801;SDS011;39709;53.334;6.534;2023-06-04T08:29:03;6.40;;;0.90;;
53801;SDS011;39709;53.334;6.534;2023-06-04T08:31:29;4.33;;;0.63;;
53801;SDS011;39709;53.334;6.534;2023-06-04T08:33:55;6.80;;;0.90;;
53801;SDS011;39709;53.334;6.534;2023-06-04T08:36:21;3.30;;;0.50;;
53801;SDS011;39709;53.334;6.534;2023-06-04T08:38:46;5.80;;;1.13;;
53801;SDS011;39709;53.334;6.534;2023-06-04T08:41:16;2.17;;;0.60;;
53801;SDS011;39709;53.334;6.534;2023-06-04T08:43:55;3.80;;;0.70;;
53801;SDS011;39709;53.334;6.534;2023-06-04T08:46:22;3.20;;;0.60;;
53801;SDS011;39709;53.334;6.534;2023-06-04T08:48:49;2.45;;;0.52;;
53801;SDS011;39709;53.334;6.534;2023-06-04T08:51:15;3.65;;;0.65;;
53801;SDS011;39709;53.334;6.534;2023-06-04T08:53:41;3.80;;;0.55;;
53801;SDS011;39709;53.334;6.534;2023-06-04T08:56:07;3.97;;;0.80;;
53801;SDS011;39709;53.334;6.534;2023-06-04T08:58:35;5.70;;;1.15;;
53801;SDS011;39709;53.334;6.534;2023-06-04T09:01:05;2.92;;;0.73;;
53801;SDS011;39709;53.334;6.534;2023-06-04T09:03:32;3.53;;;0.82;;
53801;SDS011;39709;53.334;6.534;2023-06-04T09:05:59;4.20;;;0.97;;
53801;SDS011;39709;53.334;6.534;2023-06-04T09:08:26;4.15;;;0.80;;
53801;SDS011;39709;53.334;6.534;2023-06-04T09:10:55;3.13;;;0.60;;
53801;SDS011;39709;53.334;6.534;2023-06-04T09:13:21;3.97;;;0.83;;
53801;SDS011;39709;53.334;6.534;2023-06-04T09:16:00;5.05;;;0.90;;
53801;SDS011;39709;53.334;6.534;2023-06-04T09:18:27;3.53;;;0.98;;
53801;SDS011;39709;53.334;6.534;2023-06-04T09:21:00;3.55;;;0.68;;
53801;SDS011;39709;53.334;6.534;2023-06-04T09:26:12;3.90;;;0.70;;
53801;SDS011;39709;53.334;6.534;2023-06-04T09:28:41;3.55;;;0.75;;
53801;SDS011;39709;53.334;6.534;2023-06-04T09:31:08;5.05;;;0.73;;
53801;SDS011;39709;53.334;6.534;2023-06-04T09:33:42;4.13;;;0.80;;
53801;SDS011;39709;53.334;6.534;2023-06-04T09:36:09;4.18;;;0.85;;
53801;SDS011;39709;53.334;6.534;2023-06-04T09:38:35;3.92;;;0.85;;
53801;SDS011;39709;53.334;6.534;2023-06-04T09:41:01;2.43;;;0.50;;
53801;SDS011;39709;53.334;6.534;2023-06-04T09:43:30;4.22;;;0.63;;
53801;SDS011;39709;53.334;6.534;2023-06-04T09:46:07;4.93;;;0.90;;
53801;SDS011;39709;53.334;6.534;2023-06-04T09:48:37;5.47;;;0.75;;
53801;SDS011;39709;53.334;6.534;2023-06-04T09:51:10;5.18;;;0.73;;
53801;SDS011;39709;53.334;6.534;2023-06-04T09:53:37;2.50;;;0.40;;
53801;SDS011;39709;53.334;6.534;2023-06-04T09:56:04;5.32;;;0.88;;
53801;SDS011;39709;53.334;6.534;2023-06-04T09:58:31;5.43;;;0.95;;
53801;SDS011;39709;53.334;6.534;2023-06-04T10:01:02;3.95;;;0.60;;
53801;SDS011;39709;53.334;6.534;2023-06-04T10:03:30;3.85;;;0.70;;
53801;SDS011;39709;53.334;6.534;2023-06-04T10:05:58;4.13;;;0.70;;
53801;SDS011;39709;53.334;6.534;2023-06-04T10:08:28;4.07;;;0.70;;
53801;SDS011;39709;53.334;6.534;2023-06-04T10:10:56;3.75;;;0.80;;
53801;SDS011;39709;53.334;6.534;2023-06-04T10:13:26;2.47;;;0.50;;
53801;SDS011;39709;53.334;6.534;2023-06-04T10:16:00;2.70;;;0.70;;
53801;SDS011;39709;53.334;6.534;2023-06-04T10:18:27;4.80;;;0.97;;
53801;SDS011;39709;53.334;6.534;2023-06-04T10:20:56;3.38;;;0.80;;
53801;SDS011;39709;53.334;6.534;2023-06-04T10:23:23;3.67;;;0.77;;
53801;SDS011;39709;53.334;6.534;2023-06-04T10:25:49;4.90;;;0.90;;
53801;SDS011;39709;53.334;6.534;2023-06-04T10:28:18;3.92;;;1.15;;
53801;SDS011;39709;53.334;6.534;2023-06-04T10:30:47;2.43;;;0.60;;
53801;SDS011;39709;53.334;6.534;2023-06-04T10:33:19;3.15;;;0.80;;
53801;SDS011;39709;53.334;6.534;2023-06-04T10:35:49;2.72;;;0.80;;
53801;SDS011;39709;53.334;6.534;2023-06-04T10:38:16;3.05;;;0.73;;
53801;SDS011;39709;53.334;6.534;2023-06-04T10:40:43;5.95;;;0.73;;
53801;SDS011;39709;53.334;6.534;2023-06-04T10:43:10;4.23;;;0.80;;
53801;SDS011;39709;53.334;6.534;2023-06-04T10:45:37;3.72;;;0.80;;
53801;SDS011;39709;53.334;6.534;2023-06-04T10:48:07;5.15;;;1.00;;
53801;SDS011;39709;53.334;6.534;2023-06-04T10:50:35;5.57;;;1.17;;
53801;SDS011;39709;53.334;6.534;2023-06-04T10:53:12;6.73;;;1.20;;
53801;SDS011;39709;53.334;6.534;2023-06-04T10:55:45;6.35;;;0.80;;
53801;SDS011;39709;53.334;6.534;2023-06-04T10:58:12;3.30;;;0.70;;
53801;SDS011;39709;53.334;6.534;2023-06-04T11:00:38;6.65;;;1.15;;
53801;SDS011;39709;53.334;6.534;2023-06-04T11:03:12;7.50;;;1.40;;
53801;SDS011;39709;53.334;6.534;2023-06-04T11:08:07;4.25;;;0.88;;
53801;SDS011;39709;53.334;6.534;2023-06-04T11:10:38;2.25;;;0.65;;
53801;SDS011;39709;53.334;6.534;2023-06-04T11:13:05;2.88;;;0.75;;
53801;SDS011;39709;53.334;6.534;2023-06-04T11:15:43;4.73;;;1.00;;
53801;SDS011;39709;53.334;6.534;2023-06-04T11:18:15;5.03;;;0.82;;
53801;SDS011;39709;53.334;6.534;2023-06-04T11:20:43;3.60;;;1.10;;
53801;SDS011;39709;53.334;6.534;2023-06-04T11:23:11;7.95;;;1.10;;
53801;SDS011;39709;53.334;6.534;2023-06-04T11:25:38;4.40;;;1.00;;
53801;SDS011;39709;53.334;6.534;2023-06-04T11:28:03;5.22;;;1.13;;
53801;SDS011;39709;53.334;6.534;2023-06-04T11:30:29;3.30;;;0.80;;
53801;SDS011;39709;53.334;6.534;2023-06-04T11:33:04;4.23;;;0.80;;
53801;SDS011;39709;53.334;6.534;2023-06-04T11:35:31;4.85;;;0.90;;
53801;SDS011;39709;53.334;6.534;2023-06-04T11:38:05;4.45;;;0.90;;
53801;SDS011;39709;53.334;6.534;2023-06-04T11:40:31;4.13;;;0.63;;
53801;SDS011;39709;53.334;6.534;2023-06-04T11:42:56;4.72;;;1.17;;
53801;SDS011;39709;53.334;6.534;2023-06-04T11:45:22;4.37;;;1.00;;
53801;SDS011;39709;53.334;6.534;2023-06-04T11:47:52;6.63;;;1.10;;
53801;SDS011;39709;53.334;6.534;2023-06-04T11:50:20;5.72;;;1.15;;
53801;SDS011;39709;53.334;6.534;2023-06-04T11:52:48;5.72;;;1.08;;
53801;SDS011;39709;53.334;6.534;2023-06-04T11:55:14;3.45;;;0.80;;
53801;SDS011;39709;53.334;6.534;2023-06-04T11:57:42;3.57;;;0.90;;
53801;SDS011;39709;53.334;6.534;2023-06-04T12:00:08;4.35;;;1.00;;
53801;SDS011;39709;53.334;6.534;2023-06-04T12:02:38;5.15;;;1.10;;
53801;SDS011;39709;53.334;6.534;2023-06-04T12:05:15;7.53;;;1.25;;
53801;SDS011;39709;53.334;6.534;2023-06-04T12:07:45;3.55;;;0.70;;
53801;SDS011;39709;53.334;6.534;2023-06-04T12:10:12;5.60;;;1.10;;
53801;SDS011;39709;53.334;6.534;2023-06-04T12:12:38;4.80;;;1.15;;
53801;SDS011;39709;53.334;6.534;2023-06-04T12:15:05;6.18;;;1.30;;
53801;SDS011;39709;53.334;6.534;2023-06-04T12:17:32;5.13;;;1.10;;
53801;SDS011;39709;53.334;6.534;2023-06-04T12:19:58;5.75;;;1.10;;
53801;SDS011;39709;53.334;6.534;2023-06-04T12:22:25;6.73;;;1.00;;
53801;SDS011;39709;53.334;6.534;2023-06-04T12:24:55;2.33;;;0.70;;
53801;SDS011;39709;53.334;6.534;2023-06-04T12:27:22;2.22;;;0.60;;
53801;SDS011;39709;53.334;6.534;2023-06-04T12:29:54;4.28;;;1.00;;
53801;SDS011;39709;53.334;6.534;2023-06-04T12:32:24;4.23;;;1.00;;
53801;SDS011;39709;53.334;6.534;2023-06-04T12:34:49;3.53;;;1.00;;
53801;SDS011;39709;53.334;6.534;2023-06-04T12:37:15;4.70;;;1.20;;
53801;SDS011;39709;53.334;6.534;2023-06-04T12:39:41;4.10;;;0.97;;
53801;SDS011;39709;53.334;6.534;2023-06-04T12:42:08;6.60;;;1.20;;
53801;SDS011;39709;53.334;6.534;2023-06-04T12:44:40;4.95;;;0.88;;
53801;SDS011;39709;53.334;6.534;2023-06-04T12:47:07;5.63;;;1.20;;
53801;SDS011;39709;53.334;6.534;2023-06-04T12:49:33;5.15;;;1.13;;
53801;SDS011;39709;53.334;6.534;2023-06-04T12:51:59;5.78;;;1.10;;
53801;SDS011;39709;53.334;6.534;2023-06-04T12:54:25;5.73;;;1.30;;
53801;SDS011;39709;53.334;6.534;2023-06-04T12:56:52;5.25;;;1.08;;
53801;SDS011;39709;53.334;6.534;2023-06-04T12:59:18;3.78;;;0.80;;
53801;SDS011;39709;53.334;6.534;2023-06-04T13:01:44;5.60;;;1.13;;
53801;SDS011;39709;53.334;6.534;2023-06-04T13:04:10;3.78;;;0.85;;
53801;SDS011;39709;53.334;6.534;2023-06-04T13:06:36;6.67;;;1.30;;
53801;SDS011;39709;53.334;6.534;2023-06-04T13:09:03;5.13;;;1.23;;
53801;SDS011;39709;53.334;6.534;2023-06-04T13:11:35;5.68;;;1.10;;
53801;SDS011;39709;53.334;6.534;2023-06-04T13:14:06;3.88;;;0.85;;
53801;SDS011;39709;53.334;6.534;2023-06-04T13:16:33;5.90;;;1.35;;
53801;SDS011;39709;53.334;6.534;2023-06-04T13:18:58;4.63;;;0.97;;
53801;SDS011;39709;53.334;6.534;2023-06-04T13:21:24;5.60;;;1.10;;
53801;SDS011;39709;53.334;6.534;2023-06-04T13:23:50;5.28;;;1.00;;
53801;SDS011;39709;53.334;6.534;2023-06-04T13:26:16;4.87;;;1.10;;
53801;SDS011;39709;53.334;6.534;2023-06-04T13:28:43;4.38;;;1.00;;
53801;SDS011;39709;53.334;6.534;2023-06-04T13:31:08;5.47;;;1.10;;
53801;SDS011;39709;53.334;6.534;2023-06-04T13:33:34;6.00;;;1.25;;
53801;SDS011;39709;53.334;6.534;2023-06-04T13:36:02;6.10;;;1.30;;
53801;SDS011;39709;53.334;6.534;2023-06-04T13:38:28;8.13;;;1.17;;
53801;SDS011;39709;53.334;6.534;2023-06-04T13:40:54;6.60;;;1.52;;
53801;SDS011;39709;53.334;6.534;2023-06-04T13:43:19;4.70;;;1.00;;
53801;SDS011;39709;53.334;6.534;2023-06-04T13:45:45;5.05;;;0.93;;
53801;SDS011;39709;53.334;6.534;2023-06-04T13:48:12;4.95;;;0.90;;
53801;SDS011;39709;53.334;6.534;2023-06-04T13:50:37;5.28;;;1.20;;
53801;SDS011;39709;53.334;6.534;2023-06-04T13:53:03;5.10;;;1.03;;
53801;SDS011;39709;53.334;6.534;2023-06-04T13:55:30;4.43;;;0.80;;
53801;SDS011;39709;53.334;6.534;2023-06-04T13:57:55;3.92;;;1.00;;
53801;SDS011;39709;53.334;6.534;2023-06-04T14:00:21;4.73;;;1.27;;
53801;SDS011;39709;53.334;6.534;2023-06-04T14:02:47;4.45;;;1.02;;
53801;SDS011;39709;53.334;6.534;2023-06-04T14:05:13;5.78;;;1.30;;
53801;SDS011;39709;53.334;6.534;2023-06-04T14:07:41;3.10;;;1.03;;
53801;SDS011;39709;53.334;6.534;2023-06-04T14:10:08;5.20;;;1.48;;
53801;SDS011;39709;53.334;6.534;2023-06-04T14:12:35;6.30;;;1.60;;
53801;SDS011;39709;53.334;6.534;2023-06-04T14:15:02;5.13;;;1.20;;
53801;SDS011;39709;53.334;6.534;2023-06-04T14:17:28;4.87;;;1.33;;
53801;SDS011;39709;53.334;6.534;2023-06-04T14:19:53;4.90;;;1.35;;
53801;SDS011;39709;53.334;6.534;2023-06-04T14:22:19;4.93;;;1.10;;
53801;SDS011;39709;53.334;6.534;2023-06-04T14:24:45;4.97;;;1.40;;
53801;SDS011;39709;53.334;6.534;2023-06-04T14:27:11;5.25;;;1.23;;
53801;SDS011;39709;53.334;6.534;2023-06-04T14:29:37;6.00;;;1.57;;
53801;SDS011;39709;53.334;6.534;2023-06-04T14:32:03;6.88;;;1.27;;
53801;SDS011;39709;53.334;6.534;2023-06-04T14:34:29;5.72;;;1.30;;
53801;SDS011;39709;53.334;6.534;2023-06-04T14:36:57;5.63;;;1.30;;
53801;SDS011;39709;53.334;6.534;2023-06-04T14:39:25;6.13;;;1.27;;
53801;SDS011;39709;53.334;6.534;2023-06-04T14:41:51;4.43;;;0.93;;
53801;SDS011;39709;53.334;6.534;2023-06-04T14:44:17;4.82;;;1.13;;
53801;SDS011;39709;53.334;6.534;2023-06-04T14:46:43;4.38;;;1.40;;
53801;SDS011;39709;53.334;6.534;2023-06-04T14:49:09;5.50;;;1.60;;
53801;SDS011;39709;53.334;6.534;2023-06-04T14:51:35;6.00;;;1.50;;